sensor_id;sensor_type;location;lat;lon;timestamp;temperature;humidity
42019;DHT22;27703;51.980;5.848;2023-12-14T00:01:50;7.40;99.90
42019;DHT22;27703;51.980;5.848;2023-12-14T00:04:16;7.40;99.90
42019;DHT22;27703;51.980;5.848;2023-12-14T00:06:41;7.40;99.90
42019;DHT22;27703;51.980;5.848;2023-12-14T00:09:07;7.40;99.90
42019;DHT22;27703;51.980;5.848;2023-12-14T00:11:40;7.40;99.90
42019;DHT22;27703;51.980;5.848;2023-12-14T00:14:06;7.40;99.90
42019;DHT22;27703;51.980;5.848;2023-12-14T00:16:31;7.30;99.90
42019;DHT22;27703;51.980;5.848;2023-12-14T00:18:57;7.30;99.90
42019;DHT22;27703;51.980;5.848;2023-12-14T00:21:22;7.30;99.90
42019;DHT22;27703;51.980;5.848;2023-12-14T00:23:48;7.30;99.90
42019;DHT22;27703;51.980;5.848;2023-12-14T00:26:13;7.30;99.90
42019;DHT22;27703;51.980;5.848;2023-12-14T00:28:39;7.30;99.90
42019;DHT22;27703;51.980;5.848;2023-12-14T00:31:05;7.30;99.90
42019;DHT22;27703;51.980;5.848;2023-12-14T00:33:30;7.30;99.90
42019;DHT22;27703;51.980;5.848;2023-12-14T00:35:56;7.30;99.90
42019;DHT22;27703;51.980;5.848;2023-12-14T00:38:22;7.20;99.90
42019;DHT22;27703;51.980;5.848;2023-12-14T00:40:47;7.20;99.90
42019;DHT22;27703;51.980;5.848;2023-12-14T00:43:13;7.20;99.90
42019;DHT22;27703;51.980;5.848;2023-12-14T00:45:38;7.20;99.90
42019;DHT22;27703;51.980;5.848;2023-12-14T00:48:06;7.20;99.90
42019;DHT22;27703;51.980;5.848;2023-12-14T00:50:32;7.10;99.90
42019;DHT22;27703;51.980;5.848;2023-12-14T00:52:57;7.10;99.90
42019;DHT22;27703;51.980;5.848;2023-12-14T00:55:23;7.10;99.90
42019;DHT22;27703;51.980;5.848;2023-12-14T00:57:48;7.10;99.90
42019;DHT22;27703;51.980;5.848;2023-12-14T01:00:14;7.10;99.90
42019;DHT22;27703;51.980;5.848;2023-12-14T01:02:40;7.10;99.90
42019;DHT22;27703;51.980;5.848;2023-12-14T01:05:05;7.10;99.90
42019;DHT22;27703;51.980;5.848;2023-12-14T01:07:31;7.00;99.90
42019;DHT22;27703;51.980;5.848;2023-12-14T01:09:56;7.00;99.90
42019;DHT22;27703;51.980;5.848;2023-12-14T01:12:22;7.10;99.90
42019;DHT22;27703;51.980;5.848;2023-12-14T01:14:50;7.00;99.90
42019;DHT22;27703;51.980;5.848;2023-12-14T01:17:16;7.00;99.90
42019;DHT22;27703;51.980;5.848;2023-12-14T01:19:42;7.00;99.90
42019;DHT22;27703;51.980;5.848;2023-12-14T01:22:07;7.00;99.90
42019;DHT22;27703;51.980;5.848;2023-12-14T01:24:33;7.00;99.90
42019;DHT22;27703;51.980;5.848;2023-12-14T01:26:58;7.00;99.90
42019;DHT22;27703;51.980;5.848;2023-12-14T01:29:24;7.00;99.90
42019;DHT22;27703;51.980;5.848;2023-12-14T01:31:49;7.00;99.90
42019;DHT22;27703;51.980;5.848;2023-12-14T01:34:15;7.00;99.90
42019;DHT22;27703;51.980;5.848;2023-12-14T01:36:41;7.00;99.90
42019;DHT22;27703;51.980;5.848;2023-12-14T01:39:06;7.00;99.90
42019;DHT22;27703;51.980;5.848;2023-12-14T01:41:32;7.00;99.90
42019;DHT22;27703;51.980;5.848;2023-12-14T01:43:58;7.00;99.90
42019;DHT22;27703;51.980;5.848;2023-12-14T01:46:23;7.00;99.90
42019;DHT22;27703;51.980;5.848;2023-12-14T01:48:49;7.00;99.90
42019;DHT22;27703;51.980;5.848;2023-12-14T01:51:15;7.00;99.90
42019;DHT22;27703;51.980;5.848;2023-12-14T01:53:40;7.00;99.90
42019;DHT22;27703;51.980;5.848;2023-12-14T01:56:07;6.90;99.90
42019;DHT22;27703;51.980;5.848;2023-12-14T01:58:32;6.90;99.90
42019;DHT22;27703;51.980;5.848;2023-12-14T02:01:20;6.90;99.90
42019;DHT22;27703;51.980;5.848;2023-12-14T02:03:49;6.90;99.90
42019;DHT22;27703;51.980;5.848;2023-12-14T02:06:15;6.90;99.90
42019;DHT22;27703;51.980;5.848;2023-12-14T02:08:41;6.90;99.90
42019;DHT22;27703;51.980;5.848;2023-12-14T02:11:07;6.90;99.90
42019;DHT22;27703;51.980;5.848;2023-12-14T02:13:33;6.90;99.90
42019;DHT22;27703;51.980;5.848;2023-12-14T02:15:58;6.90;99.90
42019;DHT22;27703;51.980;5.848;2023-12-14T02:18:24;6.90;99.90
42019;DHT22;27703;51.980;5.848;2023-12-14T02:20:49;6.90;99.90
42019;DHT22;27703;51.980;5.848;2023-12-14T02:23:15;6.90;99.90
42019;DHT22;27703;51.980;5.848;2023-12-14T02:25:40;6.90;99.90
42019;DHT22;27703;51.980;5.848;2023-12-14T02:28:06;6.90;99.90
42019;DHT22;27703;51.980;5.848;2023-12-14T02:30:35;6.90;99.90
42019;DHT22;27703;51.980;5.848;2023-12-14T02:33:00;6.80;99.90
42019;DHT22;27703;51.980;5.848;2023-12-14T02:35:26;6.90;99.90
42019;DHT22;27703;51.980;5.848;2023-12-14T02:37:51;6.90;99.90
42019;DHT22;27703;51.980;5.848;2023-12-14T02:40:17;6.80;99.90
42019;DHT22;27703;51.980;5.848;2023-12-14T02:42:43;6.90;99.90
42019;DHT22;27703;51.980;5.848;2023-12-14T02:45:09;6.80;99.90
42019;DHT22;27703;51.980;5.848;2023-12-14T02:47:35;6.90;99.90
42019;DHT22;27703;51.980;5.848;2023-12-14T02:50:00;6.80;99.90
42019;DHT22;27703;51.980;5.848;2023-12-14T02:52:26;6.80;99.90
42019;DHT22;27703;51.980;5.848;2023-12-14T02:54:51;6.80;99.90
42019;DHT22;27703;51.980;5.848;2023-12-14T02:57:17;6.80;99.90
42019;DHT22;27703;51.980;5.848;2023-12-14T02:59:43;6.80;99.90
42019;DHT22;27703;51.980;5.848;2023-12-14T03:02:08;6.80;99.90
42019;DHT22;27703;51.980;5.848;2023-12-14T03:04:34;6.80;99.90
42019;DHT22;27703;51.980;5.848;2023-12-14T03:07:02;6.80;99.90
42019;DHT22;27703;51.980;5.848;2023-12-14T03:09:31;6.80;99.90
42019;DHT22;27703;51.980;5.848;2023-12-14T03:11:57;6.80;99.90
42019;DHT22;27703;51.980;5.848;2023-12-14T03:14:23;6.80;99.90
42019;DHT22;27703;51.980;5.848;2023-12-14T03:16:48;6.80;99.90
42019;DHT22;27703;51.980;5.848;2023-12-14T03:19:15;6.70;99.90
42019;DHT22;27703;51.980;5.848;2023-12-14T03:21:41;6.70;99.90
42019;DHT22;27703;51.980;5.848;2023-12-14T03:24:07;6.70;99.90
42019;DHT22;27703;51.980;5.848;2023-12-14T03:26:32;6.70;99.90
42019;DHT22;27703;51.980;5.848;2023-12-14T03:28:58;6.70;99.90
42019;DHT22;27703;51.980;5.848;2023-12-14T03:31:24;6.70;99.90
42019;DHT22;27703;51.980;5.848;2023-12-14T03:33:49;6.70;99.90
42019;DHT22;27703;51.980;5.848;2023-12-14T03:36:15;6.80;99.90
42019;DHT22;27703;51.980;5.848;2023-12-14T03:38:40;6.80;99.90
42019;DHT22;27703;51.980;5.848;2023-12-14T03:41:06;6.80;99.90
42019;DHT22;27703;51.980;5.848;2023-12-14T03:43:31;6.80;99.90
42019;DHT22;27703;51.980;5.848;2023-12-14T03:45:57;6.70;99.90
42019;DHT22;27703;51.980;5.848;2023-12-14T03:48:22;6.80;99.90
42019;DHT22;27703;51.980;5.848;2023-12-14T03:50:48;6.70;99.90
42019;DHT22;27703;51.980;5.848;2023-12-14T03:53:13;6.80;99.90
42019;DHT22;27703;51.980;5.848;2023-12-14T03:55:39;6.80;99.90
42019;DHT22;27703;51.980;5.848;2023-12-14T03:58:05;6.70;99.90
42019;DHT22;27703;51.980;5.848;2023-12-14T04:00:31;6.70;99.90
42019;DHT22;27703;51.980;5.848;2023-12-14T04:02:56;6.70;99.90
42019;DHT22;27703;51.980;5.848;2023-12-14T04:05:22;6.70;99.90
42019;DHT22;27703;51.980;5.848;2023-12-14T04:07:47;6.80;99.90
42019;DHT22;27703;51.980;5.848;2023-12-14T04:10:13;6.70;99.90
42019;DHT22;27703;51.980;5.848;2023-12-14T04:12:39;6.70;99.90
42019;DHT22;27703;51.980;5.848;2023-12-14T04:15:07;6.70;99.90
42019;DHT22;27703;51.980;5.848;2023-12-14T04:17:32;6.70;99.90
42019;DHT22;27703;51.980;5.848;2023-12-14T04:19:58;6.70;99.90
42019;DHT22;27703;51.980;5.848;2023-12-14T04:22:24;6.70;99.90
42019;DHT22;27703;51.980;5.848;2023-12-14T04:24:53;6.70;99.90
42019;DHT22;27703;51.980;5.848;2023-12-14T04:27:18;6.80;99.90
42019;DHT22;27703;51.980;5.848;2023-12-14T04:29:44;6.70;99.90
42019;DHT22;27703;51.980;5.848;2023-12-14T04:32:10;6.70;99.90
42019;DHT22;27703;51.980;5.848;2023-12-14T04:34:35;6.70;99.90
42019;DHT22;27703;51.980;5.848;2023-12-14T04:37:01;6.70;99.90
42019;DHT22;27703;51.980;5.848;2023-12-14T04:39:27;6.80;99.90
42019;DHT22;27703;51.980;5.848;2023-12-14T04:41:53;6.70;99.90
42019;DHT22;27703;51.980;5.848;2023-12-14T04:44:19;6.80;99.90
42019;DHT22;27703;51.980;5.848;2023-12-14T04:46:47;6.70;99.90
42019;DHT22;27703;51.980;5.848;2023-12-14T04:49:12;6.70;99.90
42019;DHT22;27703;51.980;5.848;2023-12-14T04:51:38;6.70;99.90
42019;DHT22;27703;51.980;5.848;2023-12-14T04:54:04;6.70;99.90
42019;DHT22;27703;51.980;5.848;2023-12-14T04:56:29;6.70;99.90
42019;DHT22;27703;51.980;5.848;2023-12-14T04:58:55;6.70;99.90
42019;DHT22;27703;51.980;5.848;2023-12-14T05:01:21;6.70;99.90
42019;DHT22;27703;51.980;5.848;2023-12-14T05:03:46;6.70;99.90
42019;DHT22;27703;51.980;5.848;2023-12-14T05:06:12;6.70;99.90
42019;DHT22;27703;51.980;5.848;2023-12-14T05:08:37;6.70;99.90
42019;DHT22;27703;51.980;5.848;2023-12-14T05:11:03;6.70;99.90
42019;DHT22;27703;51.980;5.848;2023-12-14T05:13:29;6.70;99.90
42019;DHT22;27703;51.980;5.848;2023-12-14T05:15:55;6.60;99.90
42019;DHT22;27703;51.980;5.848;2023-12-14T05:18:23;6.60;99.90
42019;DHT22;27703;51.980;5.848;2023-12-14T05:20:48;6.60;99.90
42019;DHT22;27703;51.980;5.848;2023-12-14T05:23:14;6.60;99.90
42019;DHT22;27703;51.980;5.848;2023-12-14T05:25:39;6.60;99.90
42019;DHT22;27703;51.980;5.848;2023-12-14T05:28:05;6.60;99.90
42019;DHT22;27703;51.980;5.848;2023-12-14T05:30:30;6.60;99.90
42019;DHT22;27703;51.980;5.848;2023-12-14T05:32:56;6.60;99.90
42019;DHT22;27703;51.980;5.848;2023-12-14T05:35:22;6.60;99.90
42019;DHT22;27703;51.980;5.848;2023-12-14T05:37:47;6.60;99.90
42019;DHT22;27703;51.980;5.848;2023-12-14T05:40:13;6.60;99.90
42019;DHT22;27703;51.980;5.848;2023-12-14T05:42:38;6.60;99.90
42019;DHT22;27703;51.980;5.848;2023-12-14T05:45:05;6.60;99.90
42019;DHT22;27703;51.980;5.848;2023-12-14T05:47:31;6.60;99.90
42019;DHT22;27703;51.980;5.848;2023-12-14T05:49:58;6.50;99.90
42019;DHT22;27703;51.980;5.848;2023-12-14T05:52:24;6.50;99.90
42019;DHT22;27703;51.980;5.848;2023-12-14T05:54:50;6.50;99.90
42019;DHT22;27703;51.980;5.848;2023-12-14T05:57:15;6.50;99.90
42019;DHT22;27703;51.980;5.848;2023-12-14T05:59:41;6.50;99.90
42019;DHT22;27703;51.980;5.848;2023-12-14T06:02:06;6.50;99.90
42019;DHT22;27703;51.980;5.848;2023-12-14T06:04:32;6.50;99.90
42019;DHT22;27703;51.980;5.848;2023-12-14T06:06:58;6.50;99.90
42019;DHT22;27703;51.980;5.848;2023-12-14T06:09:23;6.50;99.90
42019;DHT22;27703;51.980;5.848;2023-12-14T06:11:55;6.50;99.90
42019;DHT22;27703;51.980;5.848;2023-12-14T06:14:20;6.50;99.90
42019;DHT22;27703;51.980;5.848;2023-12-14T06:16:46;6.50;99.90
42019;DHT22;27703;51.980;5.848;2023-12-14T06:19:11;6.50;99.90
42019;DHT22;27703;51.980;5.848;2023-12-14T06:21:37;6.50;99.90
42019;DHT22;27703;51.980;5.848;2023-12-14T06:24:02;6.40;99.90
42019;DHT22;27703;51.980;5.848;2023-12-14T06:26:28;6.40;99.90
42019;DHT22;27703;51.980;5.848;2023-12-14T06:28:54;6.50;99.90
42019;DHT22;27703;51.980;5.848;2023-12-14T06:31:20;6.50;99.90
42019;DHT22;27703;51.980;5.848;2023-12-14T06:33:47;6.50;99.90
42019;DHT22;27703;51.980;5.848;2023-12-14T06:36:15;6.50;99.90
42019;DHT22;27703;51.980;5.848;2023-12-14T06:38:42;6.50;99.90
42019;DHT22;27703;51.980;5.848;2023-12-14T06:41:08;6.50;99.90
42019;DHT22;27703;51.980;5.848;2023-12-14T06:43:34;6.40;99.90
42019;DHT22;27703;51.980;5.848;2023-12-14T06:45:59;6.40;99.90
42019;DHT22;27703;51.980;5.848;2023-12-14T06:48:25;6.40;99.90
42019;DHT22;27703;51.980;5.848;2023-12-14T06:50:51;6.40;99.90
42019;DHT22;27703;51.980;5.848;2023-12-14T06:53:16;6.40;99.90
42019;DHT22;27703;51.980;5.848;2023-12-14T06:55:42;6.30;99.90
42019;DHT22;27703;51.980;5.848;2023-12-14T06:58:08;6.30;99.90
42019;DHT22;27703;51.980;5.848;2023-12-14T07:00:39;6.40;99.90
42019;DHT22;27703;51.980;5.848;2023-12-14T07:03:05;6.30;99.90
42019;DHT22;27703;51.980;5.848;2023-12-14T07:05:30;6.30;99.90
42019;DHT22;27703;51.980;5.848;2023-12-14T07:07:57;6.30;99.90
42019;DHT22;27703;51.980;5.848;2023-12-14T07:10:23;6.30;99.90
42019;DHT22;27703;51.980;5.848;2023-12-14T07:12:48;6.30;99.90
42019;DHT22;27703;51.980;5.848;2023-12-14T07:15:14;6.30;99.90
42019;DHT22;27703;51.980;5.848;2023-12-14T07:17:39;6.30;99.90
42019;DHT22;27703;51.980;5.848;2023-12-14T07:20:06;6.20;99.90
42019;DHT22;27703;51.980;5.848;2023-12-14T07:22:32;6.20;99.90
42019;DHT22;27703;51.980;5.848;2023-12-14T07:24:57;6.10;99.90
42019;DHT22;27703;51.980;5.848;2023-12-14T07:27:23;6.20;99.90
42019;DHT22;27703;51.980;5.848;2023-12-14T07:29:48;6.20;99.90
42019;DHT22;27703;51.980;5.848;2023-12-14T07:32:14;6.20;99.90
42019;DHT22;27703;51.980;5.848;2023-12-14T07:34:40;6.20;99.90
42019;DHT22;27703;51.980;5.848;2023-12-14T07:37:05;6.20;99.90
42019;DHT22;27703;51.980;5.848;2023-12-14T07:39:31;6.20;99.90
42019;DHT22;27703;51.980;5.848;2023-12-14T07:41:57;6.20;99.90
42019;DHT22;27703;51.980;5.848;2023-12-14T07:44:22;6.20;99.90
42019;DHT22;27703;51.980;5.848;2023-12-14T07:46:50;6.10;99.90
42019;DHT22;27703;51.980;5.848;2023-12-14T07:49:16;6.10;99.90
42019;DHT22;27703;51.980;5.848;2023-12-14T07:51:46;6.10;99.90
42019;DHT22;27703;51.980;5.848;2023-12-14T07:54:11;6.10;99.90
42019;DHT22;27703;51.980;5.848;2023-12-14T07:56:37;6.10;99.90
42019;DHT22;27703;51.980;5.848;2023-12-14T07:59:03;6.10;99.90
42019;DHT22;27703;51.980;5.848;2023-12-14T08:01:32;6.10;99.90
42019;DHT22;27703;51.980;5.848;2023-12-14T08:03:57;6.10;99.90
42019;DHT22;27703;51.980;5.848;2023-12-14T08:06:23;6.10;99.90
42019;DHT22;27703;51.980;5.848;2023-12-14T08:08:48;6.10;99.90
42019;DHT22;27703;51.980;5.848;2023-12-14T08:11:14;6.10;99.90
42019;DHT22;27703;51.980;5.848;2023-12-14T08:13:40;6.10;99.90
42019;DHT22;27703;51.980;5.848;2023-12-14T08:16:07;6.10;99.90
42019;DHT22;27703;51.980;5.848;2023-12-14T08:18:32;6.10;99.90
42019;DHT22;27703;51.980;5.848;2023-12-14T08:20:58;6.10;99.90
42019;DHT22;27703;51.980;5.848;2023-12-14T08:23:24;6.10;99.90
42019;DHT22;27703;51.980;5.848;2023-12-14T08:25:55;6.10;99.90
42019;DHT22;27703;51.980;5.848;2023-12-14T08:28:23;6.10;99.90
42019;DHT22;27703;51.980;5.848;2023-12-14T08:30:49;6.10;99.90
42019;DHT22;27703;51.980;5.848;2023-12-14T08:33:14;6.10;99.90
42019;DHT22;27703;51.980;5.848;2023-12-14T08:35:40;6.10;99.90
42019;DHT22;27703;51.980;5.848;2023-12-14T08:38:06;6.10;99.90
42019;DHT22;27703;51.980;5.848;2023-12-14T08:40:32;6.10;99.90
42019;DHT22;27703;51.980;5.848;2023-12-14T08:42:58;6.10;99.90
42019;DHT22;27703;51.980;5.848;2023-12-14T08:45:23;6.10;99.90
42019;DHT22;27703;51.980;5.848;2023-12-14T08:47:49;6.10;99.90
42019;DHT22;27703;51.980;5.848;2023-12-14T08:50:14;6.10;99.90
42019;DHT22;27703;51.980;5.848;2023-12-14T08:52:40;6.10;99.90
42019;DHT22;27703;51.980;5.848;2023-12-14T08:55:06;6.10;99.90
42019;DHT22;27703;51.980;5.848;2023-12-14T08:57:32;6.10;99.90
42019;DHT22;27703;51.980;5.848;2023-12-14T08:59:58;6.20;99.90
42019;DHT22;27703;51.980;5.848;2023-12-14T09:02:23;6.20;99.90
42019;DHT22;27703;51.980;5.848;2023-12-14T09:04:49;6.20;99.90
42019;DHT22;27703;51.980;5.848;2023-12-14T09:07:14;6.20;99.90
42019;DHT22;27703;51.980;5.848;2023-12-14T09:09:40;6.10;99.90
42019;DHT22;27703;51.980;5.848;2023-12-14T09:12:06;6.10;99.90
42019;DHT22;27703;51.980;5.848;2023-12-14T09:14:31;6.10;99.90
42019;DHT22;27703;51.980;5.848;2023-12-14T09:16:57;6.10;99.90
42019;DHT22;27703;51.980;5.848;2023-12-14T09:19:23;6.20;99.90
42019;DHT22;27703;51.980;5.848;2023-12-14T09:21:48;6.20;99.90
42019;DHT22;27703;51.980;5.848;2023-12-14T09:24:14;6.20;99.90
42019;DHT22;27703;51.980;5.848;2023-12-14T09:26:39;6.20;99.90
42019;DHT22;27703;51.980;5.848;2023-12-14T09:29:05;6.20;99.90
42019;DHT22;27703;51.980;5.848;2023-12-14T09:31:31;6.20;99.90
42019;DHT22;27703;51.980;5.848;2023-12-14T09:33:56;6.20;99.90
42019;DHT22;27703;51.980;5.848;2023-12-14T09:36:22;6.20;99.90
42019;DHT22;27703;51.980;5.848;2023-12-14T09:38:47;6.20;99.90
42019;DHT22;27703;51.980;5.848;2023-12-14T09:41:13;6.20;99.90
42019;DHT22;27703;51.980;5.848;2023-12-14T09:43:39;6.20;99.90
42019;DHT22;27703;51.980;5.848;2023-12-14T09:46:05;6.20;99.90
42019;DHT22;27703;51.980;5.848;2023-12-14T09:48:31;6.20;99.90
42019;DHT22;27703;51.980;5.848;2023-12-14T09:50:57;6.30;99.90
42019;DHT22;27703;51.980;5.848;2023-12-14T09:53:22;6.30;99.90
42019;DHT22;27703;51.980;5.848;2023-12-14T09:55:48;6.30;99.90
42019;DHT22;27703;51.980;5.848;2023-12-14T09:58:14;6.30;99.90
42019;DHT22;27703;51.980;5.848;2023-12-14T10:00:40;6.30;99.90
42019;DHT22;27703;51.980;5.848;2023-12-14T10:03:25;6.30;99.90
42019;DHT22;27703;51.980;5.848;2023-12-14T10:05:53;6.30;99.90
42019;DHT22;27703;51.980;5.848;2023-12-14T10:08:19;6.30;99.90
42019;DHT22;27703;51.980;5.848;2023-12-14T10:10:50;6.30;99.90
42019;DHT22;27703;51.980;5.848;2023-12-14T10:13:22;6.30;99.90
42019;DHT22;27703;51.980;5.848;2023-12-14T10:15:48;6.20;99.90
42019;DHT22;27703;51.980;5.848;2023-12-14T10:18:24;6.30;99.90
42019;DHT22;27703;51.980;5.848;2023-12-14T10:20:50;6.30;99.90
42019;DHT22;27703;51.980;5.848;2023-12-14T10:23:17;6.30;99.90
42019;DHT22;27703;51.980;5.848;2023-12-14T10:25:43;6.30;99.90
42019;DHT22;27703;51.980;5.848;2023-12-14T10:28:12;6.30;99.90
42019;DHT22;27703;51.980;5.848;2023-12-14T10:30:39;6.30;99.90
42019;DHT22;27703;51.980;5.848;2023-12-14T10:33:04;6.30;99.90
42019;DHT22;27703;51.980;5.848;2023-12-14T10:35:30;6.30;99.90
42019;DHT22;27703;51.980;5.848;2023-12-14T10:37:57;6.30;99.90
42019;DHT22;27703;51.980;5.848;2023-12-14T10:40:24;6.30;99.90
42019;DHT22;27703;51.980;5.848;2023-12-14T10:42:50;6.30;99.90
42019;DHT22;27703;51.980;5.848;2023-12-14T10:45:17;6.30;99.90
42019;DHT22;27703;51.980;5.848;2023-12-14T10:47:45;6.20;99.90
42019;DHT22;27703;51.980;5.848;2023-12-14T10:50:11;6.20;99.90
42019;DHT22;27703;51.980;5.848;2023-12-14T10:52:38;6.20;99.90
42019;DHT22;27703;51.980;5.848;2023-12-14T10:55:07;6.20;99.90
42019;DHT22;27703;51.980;5.848;2023-12-14T10:57:35;6.20;99.90
42019;DHT22;27703;51.980;5.848;2023-12-14T11:00:03;6.20;99.90
42019;DHT22;27703;51.980;5.848;2023-12-14T11:02:39;6.30;99.90
42019;DHT22;27703;51.980;5.848;2023-12-14T11:05:05;6.30;99.90
42019;DHT22;27703;51.980;5.848;2023-12-14T11:07:51;6.30;99.90
42019;DHT22;27703;51.980;5.848;2023-12-14T11:10:25;6.40;99.90
42019;DHT22;27703;51.980;5.848;2023-12-14T11:15:21;6.40;99.90
42019;DHT22;27703;51.980;5.848;2023-12-14T11:23:10;6.40;99.90
42019;DHT22;27703;51.980;5.848;2023-12-14T11:25:40;6.40;99.90
42019;DHT22;27703;51.980;5.848;2023-12-14T11:28:09;6.40;99.90
42019;DHT22;27703;51.980;5.848;2023-12-14T11:30:36;6.40;99.90
42019;DHT22;27703;51.980;5.848;2023-12-14T11:33:02;6.30;99.90
42019;DHT22;27703;51.980;5.848;2023-12-14T11:35:27;6.40;99.90
42019;DHT22;27703;51.980;5.848;2023-12-14T11:37:53;6.40;99.90
42019;DHT22;27703;51.980;5.848;2023-12-14T11:40:20;6.40;99.90
42019;DHT22;27703;51.980;5.848;2023-12-14T11:43:01;6.40;99.90
42019;DHT22;27703;51.980;5.848;2023-12-14T11:45:32;6.40;99.90
42019;DHT22;27703;51.980;5.848;2023-12-14T11:47:57;6.40;99.90
42019;DHT22;27703;51.980;5.848;2023-12-14T11:50:23;6.40;99.90
42019;DHT22;27703;51.980;5.848;2023-12-14T11:52:49;6.40;99.90
42019;DHT22;27703;51.980;5.848;2023-12-14T11:55:15;6.40;99.90
42019;DHT22;27703;51.980;5.848;2023-12-14T11:57:46;6.40;99.90
42019;DHT22;27703;51.980;5.848;2023-12-14T12:00:13;6.40;99.90
42019;DHT22;27703;51.980;5.848;2023-12-14T12:02:39;6.40;99.90
42019;DHT22;27703;51.980;5.848;2023-12-14T12:05:06;6.40;99.90
42019;DHT22;27703;51.980;5.848;2023-12-14T12:07:32;6.40;99.90
42019;DHT22;27703;51.980;5.848;2023-12-14T12:09:59;6.40;99.90
42019;DHT22;27703;51.980;5.848;2023-12-14T12:12:24;6.40;99.90
42019;DHT22;27703;51.980;5.848;2023-12-14T12:14:50;6.50;99.90
42019;DHT22;27703;51.980;5.848;2023-12-14T12:17:18;6.50;99.90
42019;DHT22;27703;51.980;5.848;2023-12-14T12:19:47;6.50;99.90
42019;DHT22;27703;51.980;5.848;2023-12-14T12:22:12;6.50;99.90
42019;DHT22;27703;51.980;5.848;2023-12-14T12:24:38;6.50;99.90
42019;DHT22;27703;51.980;5.848;2023-12-14T12:27:04;6.60;99.90
42019;DHT22;27703;51.980;5.848;2023-12-14T12:29:30;6.70;99.90
42019;DHT22;27703;51.980;5.848;2023-12-14T12:31:55;6.80;99.90
42019;DHT22;27703;51.980;5.848;2023-12-14T12:34:21;6.80;99.90
42019;DHT22;27703;51.980;5.848;2023-12-14T12:36:47;6.90;99.90
42019;DHT22;27703;51.980;5.848;2023-12-14T12:39:12;6.90;99.90
42019;DHT22;27703;51.980;5.848;2023-12-14T12:41:38;6.90;99.90
42019;DHT22;27703;51.980;5.848;2023-12-14T12:44:05;6.90;99.90
42019;DHT22;27703;51.980;5.848;2023-12-14T12:46:34;6.90;99.90
42019;DHT22;27703;51.980;5.848;2023-12-14T12:49:01;6.90;99.90
42019;DHT22;27703;51.980;5.848;2023-12-14T12:51:27;6.90;99.90
42019;DHT22;27703;51.980;5.848;2023-12-14T12:53:54;6.90;99.90
42019;DHT22;27703;51.980;5.848;2023-12-14T12:56:20;6.80;99.90
42019;DHT22;27703;51.980;5.848;2023-12-14T12:58:45;6.80;99.90
42019;DHT22;27703;51.980;5.848;2023-12-14T13:01:12;6.90;99.90
42019;DHT22;27703;51.980;5.848;2023-12-14T13:03:38;6.90;99.90
42019;DHT22;27703;51.980;5.848;2023-12-14T13:06:04;6.80;99.90
42019;DHT22;27703;51.980;5.848;2023-12-14T13:08:29;6.80;99.90
42019;DHT22;27703;51.980;5.848;2023-12-14T13:10:56;6.80;99.90
42019;DHT22;27703;51.980;5.848;2023-12-14T13:13:21;6.80;99.90
42019;DHT22;27703;51.980;5.848;2023-12-14T13:15:48;6.70;99.90
42019;DHT22;27703;51.980;5.848;2023-12-14T13:18:13;6.70;99.90
42019;DHT22;27703;51.980;5.848;2023-12-14T13:20:42;6.70;99.90
42019;DHT22;27703;51.980;5.848;2023-12-14T13:23:07;6.70;99.90
42019;DHT22;27703;51.980;5.848;2023-12-14T13:25:34;6.70;99.90
42019;DHT22;27703;51.980;5.848;2023-12-14T13:28:00;6.70;99.90
42019;DHT22;27703;51.980;5.848;2023-12-14T13:30:26;6.70;99.90
42019;DHT22;27703;51.980;5.848;2023-12-14T13:32:52;6.70;99.90
42019;DHT22;27703;51.980;5.848;2023-12-14T13:35:19;6.70;99.90
42019;DHT22;27703;51.980;5.848;2023-12-14T13:37:45;6.70;99.90
42019;DHT22;27703;51.980;5.848;2023-12-14T13:40:11;6.70;99.90
42019;DHT22;27703;51.980;5.848;2023-12-14T13:42:38;6.70;99.90
42019;DHT22;27703;51.980;5.848;2023-12-14T13:45:04;6.70;99.90
42019;DHT22;27703;51.980;5.848;2023-12-14T13:47:29;6.70;99.90
42019;DHT22;27703;51.980;5.848;2023-12-14T13:49:55;6.70;99.90
42019;DHT22;27703;51.980;5.848;2023-12-14T13:52:20;6.60;99.90
42019;DHT22;27703;51.980;5.848;2023-12-14T13:54:46;6.60;99.90
42019;DHT22;27703;51.980;5.848;2023-12-14T13:57:11;6.60;99.90
42019;DHT22;27703;51.980;5.848;2023-12-14T13:59:37;6.60;99.90
42019;DHT22;27703;51.980;5.848;2023-12-14T14:02:03;6.60;99.90
42019;DHT22;27703;51.980;5.848;2023-12-14T14:04:28;6.60;99.90
42019;DHT22;27703;51.980;5.848;2023-12-14T14:06:54;6.60;99.90
42019;DHT22;27703;51.980;5.848;2023-12-14T14:09:20;6.50;99.90
42019;DHT22;27703;51.980;5.848;2023-12-14T14:11:46;6.60;99.90
42019;DHT22;27703;51.980;5.848;2023-12-14T14:14:13;6.60;99.90
42019;DHT22;27703;51.980;5.848;2023-12-14T14:16:40;6.50;99.90
42019;DHT22;27703;51.980;5.848;2023-12-14T14:19:05;6.60;99.90
42019;DHT22;27703;51.980;5.848;2023-12-14T14:21:31;6.60;99.90
42019;DHT22;27703;51.980;5.848;2023-12-14T14:23:57;6.60;99.90
42019;DHT22;27703;51.980;5.848;2023-12-14T14:26:22;6.60;99.90
42019;DHT22;27703;51.980;5.848;2023-12-14T14:28:48;6.60;99.90
42019;DHT22;27703;51.980;5.848;2023-12-14T14:31:14;6.70;99.90
42019;DHT22;27703;51.980;5.848;2023-12-14T14:33:39;6.70;99.90
42019;DHT22;27703;51.980;5.848;2023-12-14T14:36:05;6.80;99.90
42019;DHT22;27703;51.980;5.848;2023-12-14T14:38:31;6.80;99.90
42019;DHT22;27703;51.980;5.848;2023-12-14T14:40:57;6.80;99.90
42019;DHT22;27703;51.980;5.848;2023-12-14T14:43:22;6.80;99.90
42019;DHT22;27703;51.980;5.848;2023-12-14T14:45:48;6.80;99.90
42019;DHT22;27703;51.980;5.848;2023-12-14T14:48:14;6.70;99.90
42019;DHT22;27703;51.980;5.848;2023-12-14T14:50:39;6.70;99.90
42019;DHT22;27703;51.980;5.848;2023-12-14T14:53:05;6.70;99.90
42019;DHT22;27703;51.980;5.848;2023-12-14T14:55:30;6.60;99.90
42019;DHT22;27703;51.980;5.848;2023-12-14T14:57:57;6.60;99.90
42019;DHT22;27703;51.980;5.848;2023-12-14T15:00:22;6.50;99.90
42019;DHT22;27703;51.980;5.848;2023-12-14T15:02:48;6.50;99.90
42019;DHT22;27703;51.980;5.848;2023-12-14T15:05:14;6.50;99.90
42019;DHT22;27703;51.980;5.848;2023-12-14T15:07:40;6.40;99.90
42019;DHT22;27703;51.980;5.848;2023-12-14T15:10:07;6.40;99.90
42019;DHT22;27703;51.980;5.848;2023-12-14T15:12:33;6.40;99.90
42019;DHT22;27703;51.980;5.848;2023-12-14T15:14:58;6.40;99.90
42019;DHT22;27703;51.980;5.848;2023-12-14T15:17:24;6.40;99.90
42019;DHT22;27703;51.980;5.848;2023-12-14T15:19:49;6.30;99.90
42019;DHT22;27703;51.980;5.848;2023-12-14T15:22:16;6.30;99.90
42019;DHT22;27703;51.980;5.848;2023-12-14T15:24:41;6.30;99.90
42019;DHT22;27703;51.980;5.848;2023-12-14T15:27:07;6.30;99.90
42019;DHT22;27703;51.980;5.848;2023-12-14T15:29:33;6.30;99.90
42019;DHT22;27703;51.980;5.848;2023-12-14T15:31:58;6.30;99.90
42019;DHT22;27703;51.980;5.848;2023-12-14T15:34:24;6.30;99.90
42019;DHT22;27703;51.980;5.848;2023-12-14T15:36:49;6.30;99.90
42019;DHT22;27703;51.980;5.848;2023-12-14T15:39:15;6.30;99.90
42019;DHT22;27703;51.980;5.848;2023-12-14T15:41:40;6.30;99.90
42019;DHT22;27703;51.980;5.848;2023-12-14T15:44:06;6.30;99.90
42019;DHT22;27703;51.980;5.848;2023-12-14T15:46:31;6.30;99.90